Time;durP1;ratioP1;P1;durP2;ratioP2;P2;SDS_P1;SDS_P2;PMS_P1;PMS_P2;Temp;Humidity;BMP_temperature;BMP_pressure;BME280_temperature;BME280_humidity;BME280_pressure;Samples;Min_cycle;Max_cycle;Signal;HPM_P1;HPM_P2
2023/01/15 00:01:30;;;;;;;;;2.00;1.00;;;;;;;;5019257;28;46435;-78
2023/01/15 00:03:56;;;;;;;;;2.00;1.00;;;;;;;;5027682;28;45414;-79
2023/01/15 00:06:22;;;;;;;;;2.00;0.75;;;;;;;;5021708;28;45285;-79
2023/01/15 00:08:48;;;;;;;;;1.00;1.00;;;;;;;;5026356;28;45259;-80
2023/01/15 00:11:13;;;;;;;;;1.00;1.00;;;;;;;;5016613;28;45334;-79
2023/01/15 00:13:39;;;;;;;;;3.00;1.00;;;;;;;;5015757;28;45350;-79
2023/01/15 00:16:06;;;;;;;;;1.00;0.25;;;;;;;;5005872;28;45285;-79
2023/01/15 00:18:31;;;;;;;;;3.00;1.00;;;;;;;;5017769;28;45462;-79
2023/01/15 00:21:00;;;;;;;;;2.50;1.00;;;;;;;;5015296;28;47193;-79
2023/01/15 00:28:59;;;;;;;;;0.25;0.00;;;;;;;;5014666;28;45307;-79
2023/01/15 00:31:24;;;;;;;;;0.00;0.00;;;;;;;;5019319;28;45373;-78
2023/01/15 00:33:49;;;;;;;;;1.00;1.00;;;;;;;;5020250;28;45313;-79
2023/01/15 00:36:14;;;;;;;;;3.25;1.00;;;;;;;;5010225;28;45647;-79
2023/01/15 00:38:39;;;;;;;;;0.00;0.00;;;;;;;;5006068;28;45808;-79
2023/01/15 00:41:05;;;;;;;;;0.25;0.00;;;;;;;;5011865;28;45088;-78
2023/01/15 00:43:30;;;;;;;;;0.00;0.00;;;;;;;;5005951;28;45268;-79
2023/01/15 00:45:55;;;;;;;;;1.50;0.00;;;;;;;;5014526;28;45347;-78
2023/01/15 00:48:20;;;;;;;;;0.25;0.00;;;;;;;;5008586;28;45229;-78
2023/01/15 00:50:46;;;;;;;;;1.00;0.00;;;;;;;;5011211;28;47251;-78
2023/01/15 00:53:11;;;;;;;;;1.00;1.00;;;;;;;;5018271;28;45255;-79
2023/01/15 00:55:36;;;;;;;;;0.00;0.00;;;;;;;;5010826;28;45413;-78
2023/01/15 00:58:01;;;;;;;;;1.00;0.75;;;;;;;;5009639;28;45307;-78
2023/01/15 01:00:26;;;;;;;;;0.00;0.00;;;;;;;;5012351;28;45478;-79
2023/01/15 01:02:52;;;;;;;;;0.00;0.00;;;;;;;;5025396;28;45308;-78
2023/01/15 01:05:18;;;;;;;;;0.75;0.75;;;;;;;;5014002;28;45434;-78
2023/01/15 01:07:43;;;;;;;;;0.00;0.00;;;;;;;;5019098;28;45321;-78
2023/01/15 01:10:09;;;;;;;;;3.00;0.00;;;;;;;;5014628;28;45313;-78
2023/01/15 01:12:36;;;;;;;;;0.25;0.00;;;;;;;;5013949;28;45276;-78
2023/01/15 01:15:01;;;;;;;;;0.50;0.50;;;;;;;;5012420;28;45347;-78
2023/01/15 01:17:26;;;;;;;;;0.25;0.00;;;;;;;;5008890;28;45172;-77
2023/01/15 01:19:52;;;;;;;;;2.25;0.00;;;;;;;;5024289;28;45416;-78
2023/01/15 01:22:17;;;;;;;;;1.00;0.00;;;;;;;;5009266;28;44693;-78
2023/01/15 01:24:42;;;;;;;;;1.50;0.00;;;;;;;;5019307;28;45264;-78
2023/01/15 01:27:07;;;;;;;;;1.00;0.00;;;;;;;;5011139;28;45283;-76
2023/01/15 01:29:32;;;;;;;;;1.00;0.00;;;;;;;;5017936;28;45632;-78
2023/01/15 01:31:58;;;;;;;;;1.00;1.00;;;;;;;;5009604;28;44647;-78
2023/01/15 01:34:23;;;;;;;;;1.00;0.00;;;;;;;;5017256;28;44941;-78
2023/01/15 01:36:48;;;;;;;;;0.00;0.00;;;;;;;;5011437;28;45298;-79
2023/01/15 01:39:15;;;;;;;;;2.00;1.00;;;;;;;;5014579;28;45226;-78
2023/01/15 01:41:40;;;;;;;;;1.50;0.25;;;;;;;;5004415;28;45300;-78
2023/01/15 01:44:07;;;;;;;;;0.00;0.00;;;;;;;;5016718;28;45295;-77
2023/01/15 01:46:34;;;;;;;;;0.25;0.00;;;;;;;;5013162;28;45411;-78
2023/01/15 01:49:08;;;;;;;;;0.25;0.25;;;;;;;;5019884;28;45223;-76
2023/01/15 01:51:46;;;;;;;;;0.00;0.00;;;;;;;;5016192;28;45426;-79
2023/01/15 01:54:13;;;;;;;;;0.00;0.00;;;;;;;;5018823;28;45517;-78
2023/01/15 01:56:38;;;;;;;;;0.75;0.00;;;;;;;;5012537;28;45360;-78
2023/01/15 01:59:04;;;;;;;;;2.00;0.00;;;;;;;;5019582;28;45259;-78
2023/01/15 02:01:30;;;;;;;;;2.00;0.50;;;;;;;;5014074;28;45376;-78
2023/01/15 02:03:56;;;;;;;;;0.00;0.00;;;;;;;;5031102;28;45586;-78
2023/01/15 02:06:22;;;;;;;;;1.50;0.00;;;;;;;;5013658;28;45300;-78
2023/01/15 02:08:48;;;;;;;;;0.75;0.00;;;;;;;;5021509;28;45409;-78
2023/01/15 02:11:18;;;;;;;;;1.00;0.00;;;;;;;;5008684;28;45336;-79
2023/01/15 02:14:03;;;;;;;;;1.00;0.00;;;;;;;;5007914;28;45547;-78
2023/01/15 02:16:31;;;;;;;;;0.75;0.00;;;;;;;;5008173;28;45462;-78
2023/01/15 02:19:05;;;;;;;;;1.00;0.00;;;;;;;;5019490;28;45590;-78
2023/01/15 02:21:49;;;;;;;;;0.00;0.00;;;;;;;;5007231;28;45422;-78
2023/01/15 02:24:26;;;;;;;;;0.00;0.00;;;;;;;;5009352;28;45293;-79
2023/01/15 02:27:03;;;;;;;;;0.00;0.00;;;;;;;;5012175;28;45570;-79
2023/01/15 02:29:50;;;;;;;;;0.25;0.25;;;;;;;;5015157;28;45261;-78
2023/01/15 02:32:22;;;;;;;;;1.00;0.00;;;;;;;;5013892;28;45259;-78
2023/01/15 02:34:51;;;;;;;;;1.00;0.50;;;;;;;;5018377;28;45466;-78
2023/01/15 02:37:19;;;;;;;;;0.00;0.00;;;;;;;;5006221;28;45256;-78
2023/01/15 02:39:46;;;;;;;;;0.00;0.00;;;;;;;;5017025;28;45336;-78
2023/01/15 02:42:13;;;;;;;;;2.00;0.25;;;;;;;;5007970;28;45328;-78
2023/01/15 02:44:40;;;;;;;;;0.50;0.00;;;;;;;;5020669;28;46654;-78
2023/01/15 02:47:06;;;;;;;;;0.00;0.00;;;;;;;;5007603;28;46148;-77
2023/01/15 02:49:32;;;;;;;;;0.00;0.00;;;;;;;;5018110;28;45610;-77
2023/01/15 02:52:02;;;;;;;;;1.00;0.00;;;;;;;;5017239;28;45273;-78
2023/01/15 02:54:30;;;;;;;;;0.00;0.00;;;;;;;;5021535;28;45928;-78
2023/01/15 02:56:59;;;;;;;;;0.00;0.00;;;;;;;;5006737;28;45045;-78
2023/01/15 02:59:28;;;;;;;;;2.00;0.00;;;;;;;;5019662;28;45487;-78
2023/01/15 03:01:57;;;;;;;;;2.00;0.00;;;;;;;;5013128;28;45465;-78
2023/01/15 03:04:29;;;;;;;;;1.00;0.00;;;;;;;;5014236;28;45222;-79
2023/01/15 03:07:21;;;;;;;;;0.00;0.00;;;;;;;;5007734;28;45354;-80
2023/01/15 03:09:48;;;;;;;;;0.75;0.00;;;;;;;;5017126;28;45293;-79
2023/01/15 03:12:16;;;;;;;;;1.00;0.00;;;;;;;;5017367;28;46239;-79
2023/01/15 03:14:49;;;;;;;;;1.75;0.00;;;;;;;;5010354;28;45486;-80
2023/01/15 03:17:20;;;;;;;;;0.00;0.00;;;;;;;;5011653;28;45486;-81
2023/01/15 03:19:52;;;;;;;;;0.00;0.00;;;;;;;;5017865;28;46764;-81
2023/01/15 03:22:29;;;;;;;;;1.50;0.00;;;;;;;;5008707;28;45340;-82
2023/01/15 03:25:05;;;;;;;;;1.00;0.00;;;;;;;;5026809;28;45395;-80
2023/01/15 03:27:30;;;;;;;;;3.00;0.00;;;;;;;;5008891;28;45305;-82
2023/01/15 03:30:05;;;;;;;;;0.25;0.00;;;;;;;;5016809;28;45268;-81
2023/01/15 03:32:30;;;;;;;;;1.00;0.00;;;;;;;;5014738;28;45308;-80
2023/01/15 03:34:56;;;;;;;;;0.00;0.00;;;;;;;;5018494;28;45321;-82
2023/01/15 03:37:23;;;;;;;;;2.25;0.00;;;;;;;;5017781;28;45299;-81
2023/01/15 03:39:48;;;;;;;;;0.00;0.00;;;;;;;;5019198;28;46150;-82
2023/01/15 03:42:30;;;;;;;;;1.00;0.00;;;;;;;;5007195;28;45899;-80
2023/01/15 03:45:01;;;;;;;;;0.00;0.00;;;;;;;;5005944;28;45264;-80
2023/01/15 03:47:45;;;;;;;;;0.00;0.00;;;;;;;;5006892;28;46104;-80
2023/01/15 03:50:21;;;;;;;;;0.00;0.00;;;;;;;;5017169;28;47579;-80
2023/01/15 03:52:46;;;;;;;;;0.00;0.00;;;;;;;;5021147;28;45289;-80
2023/01/15 03:55:15;;;;;;;;;0.00;0.00;;;;;;;;5016826;28;45346;-79
2023/01/15 03:57:44;;;;;;;;;0.50;0.00;;;;;;;;5014078;28;45461;-77
2023/01/15 04:00:17;;;;;;;;;0.00;0.00;;;;;;;;5009732;28;47203;-81
2023/01/15 04:02:44;;;;;;;;;0.00;0.00;;;;;;;;5012118;28;44930;-79
2023/01/15 04:05:10;;;;;;;;;1.50;0.00;;;;;;;;5016202;28;45304;-78
2023/01/15 04:07:35;;;;;;;;;0.00;0.00;;;;;;;;5015476;28;46880;-80
2023/01/15 04:10:01;;;;;;;;;0.00;0.00;;;;;;;;5019976;28;45328;-80
2023/01/15 04:12:26;;;;;;;;;1.00;0.00;;;;;;;;5016277;28;45431;-81
2023/01/15 04:14:52;;;;;;;;;0.00;0.00;;;;;;;;5018439;28;45251;-79
2023/01/15 04:17:17;;;;;;;;;0.25;0.00;;;;;;;;5012289;28;45182;-79
2023/01/15 04:19:43;;;;;;;;;0.00;0.00;;;;;;;;5017385;28;45528;-80
2023/01/15 04:22:09;;;;;;;;;1.00;0.00;;;;;;;;5015822;28;45425;-80
2023/01/15 04:24:34;;;;;;;;;1.00;0.00;;;;;;;;5019933;28;45292;-82
2023/01/15 04:26:59;;;;;;;;;0.00;0.00;;;;;;;;5019766;28;45647;-81
2023/01/15 04:29:25;;;;;;;;;0.00;0.00;;;;;;;;5017020;28;45347;-81
2023/01/15 04:31:56;;;;;;;;;0.00;0.00;;;;;;;;5017805;28;45390;-82
2023/01/15 04:34:21;;;;;;;;;0.50;0.00;;;;;;;;5014426;28;45294;-79
2023/01/15 04:36:46;;;;;;;;;0.00;0.00;;;;;;;;5007727;28;45839;-80
2023/01/15 04:39:12;;;;;;;;;0.00;0.00;;;;;;;;5007261;28;45474;-81
2023/01/15 04:44:25;;;;;;;;;0.00;0.00;;;;;;;;5010118;28;45450;-80
2023/01/15 04:46:52;;;;;;;;;0.00;0.00;;;;;;;;5017117;28;45506;-82
2023/01/15 04:49:17;;;;;;;;;1.00;0.00;;;;;;;;5005849;28;45311;-83
2023/01/15 04:51:43;;;;;;;;;0.00;0.00;;;;;;;;4998937;28;45337;-83
2023/01/15 04:54:09;;;;;;;;;0.00;0.00;;;;;;;;5009737;28;45316;-81
2023/01/15 04:56:42;;;;;;;;;0.25;0.00;;;;;;;;5010521;28;45406;-83
2023/01/15 04:59:08;;;;;;;;;2.75;0.00;;;;;;;;5012403;28;47161;-82
2023/01/15 05:01:33;;;;;;;;;0.00;0.00;;;;;;;;5013801;28;45276;-80
2023/01/15 05:03:59;;;;;;;;;0.00;0.00;;;;;;;;5005308;28;45281;-82
2023/01/15 05:06:24;;;;;;;;;1.00;0.00;;;;;;;;5011123;28;45382;-82
2023/01/15 05:08:50;;;;;;;;;0.00;0.00;;;;;;;;5019524;28;45200;-82
2023/01/15 05:11:15;;;;;;;;;0.00;0.00;;;;;;;;5012348;28;45142;-82
2023/01/15 05:13:40;;;;;;;;;0.00;0.00;;;;;;;;5017467;28;45296;-81
2023/01/15 05:16:16;;;;;;;;;0.00;0.00;;;;;;;;5008924;28;44731;-82
2023/01/15 05:18:42;;;;;;;;;0.00;0.00;;;;;;;;5007100;28;45568;-78
2023/01/15 05:21:12;;;;;;;;;0.50;0.50;;;;;;;;5002567;28;45168;-79
2023/01/15 05:23:38;;;;;;;;;0.00;0.00;;;;;;;;4999712;28;45404;-80
2023/01/15 05:26:03;;;;;;;;;0.00;0.00;;;;;;;;5005011;28;45794;-79
2023/01/15 05:28:29;;;;;;;;;1.00;0.00;;;;;;;;5003329;28;45177;-78
2023/01/15 05:30:54;;;;;;;;;2.00;0.00;;;;;;;;5004283;28;45456;-78
2023/01/15 05:33:19;;;;;;;;;0.00;0.00;;;;;;;;4985539;28;45284;-80
2023/01/15 05:35:44;;;;;;;;;0.00;0.00;;;;;;;;5008984;28;45525;-80
2023/01/15 05:38:10;;;;;;;;;0.75;0.00;;;;;;;;5000796;28;47856;-79
2023/01/15 05:40:35;;;;;;;;;0.00;0.00;;;;;;;;5008969;28;45309;-79
2023/01/15 05:43:00;;;;;;;;;0.00;0.00;;;;;;;;5010280;28;46513;-78
2023/01/15 05:45:25;;;;;;;;;1.00;0.00;;;;;;;;5010449;28;45703;-78
2023/01/15 05:47:54;;;;;;;;;0.00;0.00;;;;;;;;5016456;28;46115;-78
2023/01/15 05:50:19;;;;;;;;;0.00;0.00;;;;;;;;5013340;28;44809;-79
2023/01/15 05:52:44;;;;;;;;;0.00;0.00;;;;;;;;5014678;28;45492;-79
2023/01/15 05:55:09;;;;;;;;;0.00;0.00;;;;;;;;5013621;28;46039;-79
2023/01/15 05:57:34;;;;;;;;;0.00;0.00;;;;;;;;5011054;28;46750;-78
2023/01/15 06:00:00;;;;;;;;;0.00;0.00;;;;;;;;5012292;28;45526;-80
2023/01/15 06:02:25;;;;;;;;;0.00;0.00;;;;;;;;5014364;28;45491;-79
2023/01/15 06:04:50;;;;;;;;;0.00;0.00;;;;;;;;5015894;28;44816;-79
2023/01/15 06:07:17;;;;;;;;;0.00;0.00;;;;;;;;5010971;28;46409;-80
2023/01/15 06:09:42;;;;;;;;;1.00;0.00;;;;;;;;5015187;28;45342;-80
2023/01/15 06:12:07;;;;;;;;;0.00;0.00;;;;;;;;5011615;28;45380;-79
2023/01/15 06:14:32;;;;;;;;;1.75;0.75;;;;;;;;5016006;28;45409;-83
2023/01/15 06:16:58;;;;;;;;;0.00;0.00;;;;;;;;5013504;28;47138;-83
2023/01/15 06:19:23;;;;;;;;;0.00;0.00;;;;;;;;5008481;28;45518;-80
2023/01/15 06:21:48;;;;;;;;;0.00;0.00;;;;;;;;5013906;28;44916;-80
2023/01/15 06:24:16;;;;;;;;;0.00;0.00;;;;;;;;5013508;28;45792;-81
2023/01/15 06:26:41;;;;;;;;;0.50;0.00;;;;;;;;5012709;28;45096;-81
2023/01/15 06:29:06;;;;;;;;;0.00;0.00;;;;;;;;5018248;28;45422;-82
2023/01/15 06:31:31;;;;;;;;;0.00;0.00;;;;;;;;5017129;28;45549;-82
2023/01/15 06:33:56;;;;;;;;;0.00;0.00;;;;;;;;5014148;28;45198;-81
2023/01/15 06:36:23;;;;;;;;;1.00;0.00;;;;;;;;5013509;28;47037;-81
2023/01/15 06:38:48;;;;;;;;;0.00;0.00;;;;;;;;5012703;28;45319;-82
2023/01/15 06:49:28;;;;;;;;;0.00;0.00;;;;;;;;5008015;28;45107;-82
2023/01/15 06:51:53;;;;;;;;;1.00;0.00;;;;;;;;5013718;28;45221;-82
2023/01/15 06:54:18;;;;;;;;;1.00;0.00;;;;;;;;5017230;28;45231;-82
2023/01/15 06:56:43;;;;;;;;;1.00;0.00;;;;;;;;5015317;28;46910;-82
2023/01/15 06:59:09;;;;;;;;;0.00;0.00;;;;;;;;5017618;28;45291;-81
2023/01/15 07:01:34;;;;;;;;;0.00;0.00;;;;;;;;5011528;28;45212;-81
2023/01/15 07:03:59;;;;;;;;;0.00;0.00;;;;;;;;5018606;28;45378;-81
2023/01/15 07:06:24;;;;;;;;;0.00;0.00;;;;;;;;5012304;28;45399;-81
2023/01/15 07:08:51;;;;;;;;;0.75;0.00;;;;;;;;5025049;28;45385;-82
2023/01/15 07:11:16;;;;;;;;;0.00;0.00;;;;;;;;5005989;28;45351;-81
2023/01/15 07:13:41;;;;;;;;;0.00;0.00;;;;;;;;5000928;28;45332;-80
2023/01/15 07:16:25;;;;;;;;;0.00;0.00;;;;;;;;5009395;28;45041;-80
2023/01/15 07:18:50;;;;;;;;;0.00;0.00;;;;;;;;5021935;28;45359;-82
2023/01/15 07:21:16;;;;;;;;;0.00;0.00;;;;;;;;5012134;28;45402;-81
2023/01/15 07:23:41;;;;;;;;;0.00;0.00;;;;;;;;5019087;28;45422;-82
2023/01/15 07:26:06;;;;;;;;;0.00;0.00;;;;;;;;5019186;28;46133;-81
2023/01/15 07:28:31;;;;;;;;;0.00;0.00;;;;;;;;5021269;28;45776;-82
2023/01/15 07:30:57;;;;;;;;;1.00;0.00;;;;;;;;5016197;28;45324;-81
2023/01/15 07:33:25;;;;;;;;;0.00;0.00;;;;;;;;5025424;28;45292;-81
2023/01/15 07:35:50;;;;;;;;;0.00;0.00;;;;;;;;5015409;28;45359;-81
2023/01/15 07:38:16;;;;;;;;;1.00;0.00;;;;;;;;5021755;28;45154;-81
2023/01/15 07:40:42;;;;;;;;;0.50;0.00;;;;;;;;5013986;28;45335;-82
2023/01/15 07:51:20;;;;;;;;;0.00;0.00;;;;;;;;5013937;28;45317;-81
2023/01/15 07:53:45;;;;;;;;;0.00;0.00;;;;;;;;5018407;28;45271;-82
2023/01/15 07:56:10;;;;;;;;;1.00;1.00;;;;;;;;5010445;28;46810;-82
2023/01/15 07:58:36;;;;;;;;;0.00;0.00;;;;;;;;5008513;28;45253;-83
2023/01/15 08:01:01;;;;;;;;;0.00;0.00;;;;;;;;5012925;28;45422;-83
2023/01/15 08:03:26;;;;;;;;;0.00;0.00;;;;;;;;5008827;28;45660;-82
2023/01/15 08:05:51;;;;;;;;;0.75;0.00;;;;;;;;5021548;28;45360;-82
2023/01/15 08:08:16;;;;;;;;;0.00;0.00;;;;;;;;5011913;28;45383;-82
2023/01/15 08:16:10;;;;;;;;;1.75;0.00;;;;;;;;5020937;28;45049;-82
2023/01/15 08:18:35;;;;;;;;;0.00;0.00;;;;;;;;5024817;28;44682;-81
2023/01/15 08:21:00;;;;;;;;;0.75;0.00;;;;;;;;5012219;28;45360;-84
2023/01/15 08:23:26;;;;;;;;;0.00;0.00;;;;;;;;5008227;28;45276;-82
2023/01/15 08:25:51;;;;;;;;;1.50;1.50;;;;;;;;5014566;28;46138;-83
2023/01/15 08:28:16;;;;;;;;;1.00;1.00;;;;;;;;5019899;28;45216;-83
2023/01/15 08:30:41;;;;;;;;;0.00;0.00;;;;;;;;5009885;28;45460;-83
2023/01/15 08:33:06;;;;;;;;;1.00;1.00;;;;;;;;5003875;28;45358;-83
2023/01/15 08:35:33;;;;;;;;;2.00;2.00;;;;;;;;5012614;28;46920;-85
2023/01/15 08:37:58;;;;;;;;;4.25;1.75;;;;;;;;5005804;28;44749;-84
2023/01/15 08:40:23;;;;;;;;;0.25;0.00;;;;;;;;5013678;28;45200;-84
2023/01/15 08:42:48;;;;;;;;;1.00;1.00;;;;;;;;5008116;28;45169;-85
2023/01/15 08:45:14;;;;;;;;;2.00;1.00;;;;;;;;5015110;28;46706;-81
2023/01/15 08:47:39;;;;;;;;;4.75;0.50;;;;;;;;5024318;28;45164;-80
2023/01/15 08:50:06;;;;;;;;;3.00;1.00;;;;;;;;5015372;28;45188;-80
2023/01/15 08:52:31;;;;;;;;;1.50;1.00;;;;;;;;5006219;28;46169;-79
2023/01/15 08:54:57;;;;;;;;;0.75;0.75;;;;;;;;5018563;28;44979;-81
2023/01/15 08:57:22;;;;;;;;;1.25;1.25;;;;;;;;5011433;28;45276;-80
2023/01/15 08:59:47;;;;;;;;;1.25;1.25;;;;;;;;5019361;28;45532;-81
2023/01/15 09:02:14;;;;;;;;;1.00;1.00;;;;;;;;5013101;28;45348;-80
2023/01/15 09:04:39;;;;;;;;;4.00;3.00;;;;;;;;5021752;28;45461;-79
2023/01/15 09:07:05;;;;;;;;;4.00;2.25;;;;;;;;5009797;28;45371;-82
2023/01/15 09:09:30;;;;;;;;;1.25;1.00;;;;;;;;5007150;28;45264;-82
2023/01/15 09:11:55;;;;;;;;;1.00;1.00;;;;;;;;5001358;28;45364;-83
2023/01/15 09:14:20;;;;;;;;;2.00;2.00;;;;;;;;5016997;28;47145;-84
2023/01/15 09:16:45;;;;;;;;;2.25;2.25;;;;;;;;5019557;28;45181;-82
2023/01/15 09:19:11;;;;;;;;;5.50;2.00;;;;;;;;5019227;28;46199;-80
2023/01/15 09:21:36;;;;;;;;;0.75;0.75;;;;;;;;5006556;28;45506;-82
2023/01/15 09:24:01;;;;;;;;;0.50;0.50;;;;;;;;5019792;28;46143;-82
2023/01/15 09:26:27;;;;;;;;;1.00;1.00;;;;;;;;5006010;28;45552;-82
2023/01/15 09:28:52;;;;;;;;;2.00;2.00;;;;;;;;5016279;28;45571;-83
2023/01/15 09:31:18;;;;;;;;;2.25;0.00;;;;;;;;5011667;28;45458;-82
2023/01/15 09:33:43;;;;;;;;;2.25;1.00;;;;;;;;5011629;28;45248;-80
2023/01/15 09:36:27;;;;;;;;;1.50;0.25;;;;;;;;5017732;28;45284;-83
2023/01/15 09:38:53;;;;;;;;;1.00;1.00;;;;;;;;5011172;28;45245;-81
2023/01/15 09:44:03;;;;;;;;;2.00;1.00;;;;;;;;5018169;28;45680;-81
2023/01/15 09:46:33;;;;;;;;;3.00;1.00;;;;;;;;5009881;28;45112;-81
2023/01/15 09:49:03;;;;;;;;;0.00;0.00;;;;;;;;5009374;28;45387;-84
2023/01/15 09:51:35;;;;;;;;;0.00;0.00;;;;;;;;5010423;28;45513;-83
2023/01/15 09:54:00;;;;;;;;;2.50;2.50;;;;;;;;5004911;28;46762;-81
2023/01/15 09:56:27;;;;;;;;;2.50;0.00;;;;;;;;5013518;28;45296;-81
2023/01/15 09:58:54;;;;;;;;;1.50;1.50;;;;;;;;5016874;28;45345;-81
2023/01/15 10:01:25;;;;;;;;;4.25;0.00;;;;;;;;5014830;28;46424;-83
2023/01/15 10:04:12;;;;;;;;;0.00;0.00;;;;;;;;5018430;28;45426;-83
2023/01/15 10:06:55;;;;;;;;;0.00;0.00;;;;;;;;5017329;28;45376;-82
2023/01/15 10:09:23;;;;;;;;;0.00;0.00;;;;;;;;5016872;28;45408;-84
2023/01/15 10:14:45;;;;;;;;;2.00;0.75;;;;;;;;5013052;28;45493;-79
2023/01/15 10:17:38;;;;;;;;;0.00;0.00;;;;;;;;5005461;28;45242;-82
2023/01/15 10:20:04;;;;;;;;;0.25;0.25;;;;;;;;5014922;28;45427;-81
2023/01/15 10:22:43;;;;;;;;;3.00;2.00;;;;;;;;5012163;28;45411;-77
2023/01/15 10:25:13;;;;;;;;;1.50;0.00;;;;;;;;5022470;28;45292;-80
2023/01/15 10:27:41;;;;;;;;;1.00;1.00;;;;;;;;5018775;28;45350;-80
2023/01/15 10:30:25;;;;;;;;;0.00;0.00;;;;;;;;5014198;28;45320;-79
2023/01/15 10:32:54;;;;;;;;;0.00;0.00;;;;;;;;5011044;28;46139;-79
2023/01/15 10:35:40;;;;;;;;;0.00;0.00;;;;;;;;5013194;28;45591;-81
2023/01/15 10:38:08;;;;;;;;;2.00;0.00;;;;;;;;5008838;28;45354;-81
2023/01/15 10:40:52;;;;;;;;;2.00;0.00;;;;;;;;5016118;28;45445;-81
2023/01/15 10:43:23;;;;;;;;;1.50;0.25;;;;;;;;5003856;28;45944;-82
2023/01/15 10:45:59;;;;;;;;;2.00;0.75;;;;;;;;5005997;28;45607;-81
2023/01/15 10:48:24;;;;;;;;;1.50;0.50;;;;;;;;5014271;28;45313;-79
2023/01/15 10:50:50;;;;;;;;;0.00;0.00;;;;;;;;5018650;28;45410;-78
2023/01/15 10:53:21;;;;;;;;;4.00;3.00;;;;;;;;5015424;28;45703;-81
2023/01/15 10:55:49;;;;;;;;;0.00;0.00;;;;;;;;5020804;28;45620;-81
2023/01/15 10:58:20;;;;;;;;;1.00;1.00;;;;;;;;5016355;28;45392;-80
2023/01/15 11:00:49;;;;;;;;;0.75;0.75;;;;;;;;5018265;28;45496;-81
2023/01/15 11:03:18;;;;;;;;;5.00;3.50;;;;;;;;5024901;28;45246;-82
2023/01/15 11:05:45;;;;;;;;;2.00;0.50;;;;;;;;5021722;28;45375;-78
2023/01/15 11:08:19;;;;;;;;;1.25;0.75;;;;;;;;5018026;28;45409;-78
2023/01/15 11:10:45;;;;;;;;;0.00;0.00;;;;;;;;5018275;28;44824;-76
2023/01/15 11:21:45;;;;;;;;;1.00;1.00;;;;;;;;5016181;28;45340;-78
2023/01/15 11:24:14;;;;;;;;;1.75;0.00;;;;;;;;5022802;28;44852;-80
2023/01/15 11:26:39;;;;;;;;;0.00;0.00;;;;;;;;5011548;28;46632;-79
2023/01/15 11:29:19;;;;;;;;;2.00;1.00;;;;;;;;5021769;28;45213;-79
2023/01/15 11:31:44;;;;;;;;;2.25;0.00;;;;;;;;5011001;28;45385;-79
2023/01/15 11:34:20;;;;;;;;;0.00;0.00;;;;;;;;5014523;28;45316;-78
2023/01/15 11:36:45;;;;;;;;;0.00;0.00;;;;;;;;5016322;28;45423;-78
2023/01/15 11:39:21;;;;;;;;;1.25;0.25;;;;;;;;5016829;28;45347;-79
2023/01/15 11:52:49;;;;;;;;;0.25;0.00;;;;;;;;5010074;28;45445;-82
2023/01/15 11:55:18;;;;;;;;;0.00;0.00;;;;;;;;5021732;28;45411;-80
2023/01/15 11:57:44;;;;;;;;;2.50;1.00;;;;;;;;5013250;28;47138;-83
2023/01/15 12:00:20;;;;;;;;;1.25;0.00;;;;;;;;5016565;28;45647;-79
2023/01/15 12:02:48;;;;;;;;;2.00;0.00;;;;;;;;5017171;28;45300;-79
2023/01/15 12:05:33;;;;;;;;;1.00;1.00;;;;;;;;5016769;28;45498;-82
2023/01/15 12:08:01;;;;;;;;;1.75;1.00;;;;;;;;5014000;28;45483;-81
2023/01/15 12:13:25;;;;;;;;;1.00;0.00;;;;;;;;5013068;28;45311;-82
2023/01/15 12:16:09;;;;;;;;;1.25;0.00;;;;;;;;5008984;28;45356;-82
2023/01/15 12:18:53;;;;;;;;;2.00;1.00;;;;;;;;5022487;28;46202;-83
2023/01/15 12:21:42;;;;;;;;;0.00;0.00;;;;;;;;5005459;28;45253;-81
2023/01/15 12:24:10;;;;;;;;;0.75;0.75;;;;;;;;5017849;28;45418;-79
2023/01/15 12:26:48;;;;;;;;;0.50;0.50;;;;;;;;5015110;28;46856;-80
2023/01/15 12:29:28;;;;;;;;;0.25;0.00;;;;;;;;5024944;28;45541;-80
2023/01/15 12:31:53;;;;;;;;;3.00;1.00;;;;;;;;5011227;28;45367;-81
2023/01/15 12:34:18;;;;;;;;;1.00;0.00;;;;;;;;5018244;28;45358;-81
2023/01/15 12:36:46;;;;;;;;;2.25;0.50;;;;;;;;5008813;28;45652;-80
2023/01/15 12:39:23;;;;;;;;;0.75;0.75;;;;;;;;5016426;28;45254;-82
2023/01/15 12:45:06;;;;;;;;;1.50;0.75;;;;;;;;5012831;28;45423;-82
2023/01/15 12:47:50;;;;;;;;;1.75;0.00;;;;;;;;5008010;28;46361;-83
2023/01/15 12:50:35;;;;;;;;;0.00;0.00;;;;;;;;5001623;28;45665;-81
2023/01/15 12:53:00;;;;;;;;;1.25;0.25;;;;;;;;5011230;28;44791;-82
2023/01/15 12:55:28;;;;;;;;;1.00;0.00;;;;;;;;5016951;28;45318;-78
2023/01/15 12:57:58;;;;;;;;;1.75;0.00;;;;;;;;5005710;28;45331;-82
2023/01/15 13:00:25;;;;;;;;;0.25;0.00;;;;;;;;5014530;28;46309;-80
2023/01/15 13:03:09;;;;;;;;;0.75;0.25;;;;;;;;5003244;28;45418;-81
2023/01/15 13:05:41;;;;;;;;;3.25;2.00;;;;;;;;5006958;28;45584;-85
2023/01/15 13:08:15;;;;;;;;;2.25;2.25;;;;;;;;5010044;28;45362;-82
2023/01/15 13:10:40;;;;;;;;;0.50;0.00;;;;;;;;5012033;28;47733;-84
2023/01/15 13:13:23;;;;;;;;;4.75;2.00;;;;;;;;5014504;28;45280;-80
2023/01/15 13:16:02;;;;;;;;;6.00;1.50;;;;;;;;5007647;28;45581;-82
2023/01/15 13:18:39;;;;;;;;;2.00;1.00;;;;;;;;5015769;28;46122;-83
2023/01/15 13:21:11;;;;;;;;;1.25;0.00;;;;;;;;5009592;28;48013;-83
2023/01/15 13:23:36;;;;;;;;;1.00;1.00;;;;;;;;5015711;28;45298;-81
2023/01/15 13:26:17;;;;;;;;;2.50;2.00;;;;;;;;5010744;28;45368;-79
2023/01/15 13:28:51;;;;;;;;;1.00;0.00;;;;;;;;5018353;28;45227;-81
2023/01/15 13:31:34;;;;;;;;;4.25;1.00;;;;;;;;5004518;28;45534;-80
2023/01/15 13:34:01;;;;;;;;;0.50;0.50;;;;;;;;5007140;28;45394;-83
2023/01/15 13:36:29;;;;;;;;;2.00;0.75;;;;;;;;5011892;28;45453;-83
2023/01/15 13:38:56;;;;;;;;;1.00;1.00;;;;;;;;5002484;28;45550;-80
2023/01/15 13:44:16;;;;;;;;;1.50;0.00;;;;;;;;5020884;28;46221;-82
2023/01/15 13:46:42;;;;;;;;;1.50;1.00;;;;;;;;5012442;28;45275;-81
2023/01/15 13:49:16;;;;;;;;;0.00;0.00;;;;;;;;5017775;28;45204;-82
2023/01/15 13:51:46;;;;;;;;;1.75;0.00;;;;;;;;5017367;28;45232;-82
2023/01/15 13:54:14;;;;;;;;;2.00;0.25;;;;;;;;5022744;28;45410;-81
2023/01/15 13:56:39;;;;;;;;;0.50;0.00;;;;;;;;5021245;28;45434;-81
2023/01/15 13:59:06;;;;;;;;;3.50;1.00;;;;;;;;5025006;28;45427;-81
2023/01/15 14:01:34;;;;;;;;;4.00;1.00;;;;;;;;5017906;28;45418;-80
2023/01/15 14:04:04;;;;;;;;;0.75;0.00;;;;;;;;5022806;28;45183;-82
2023/01/15 14:06:36;;;;;;;;;1.00;1.00;;;;;;;;5018451;28;45656;-80
2023/01/15 14:09:02;;;;;;;;;0.00;0.00;;;;;;;;5021118;28;46749;-80
2023/01/15 14:11:34;;;;;;;;;0.00;0.00;;;;;;;;5006770;28;45447;-82
2023/01/15 14:14:15;;;;;;;;;2.25;0.75;;;;;;;;5020542;28;45180;-81
2023/01/15 14:16:59;;;;;;;;;0.75;0.75;;;;;;;;5005744;28;45443;-79
2023/01/15 14:19:42;;;;;;;;;1.00;0.00;;;;;;;;5022304;28;45522;-80
2023/01/15 14:22:22;;;;;;;;;3.75;0.00;;;;;;;;5011702;28;45372;-80
2023/01/15 14:24:48;;;;;;;;;0.00;0.00;;;;;;;;5020495;28;45494;-80
2023/01/15 14:27:36;;;;;;;;;0.00;0.00;;;;;;;;5026711;28;45288;-81
2023/01/15 14:30:01;;;;;;;;;0.00;0.00;;;;;;;;5013057;28;45288;-81
2023/01/15 14:32:45;;;;;;;;;1.25;1.00;;;;;;;;5013391;28;46899;-78
2023/01/15 14:35:15;;;;;;;;;1.75;0.00;;;;;;;;5022411;28;45441;-78
2023/01/15 14:37:49;;;;;;;;;0.00;0.00;;;;;;;;5007845;28;45451;-79
2023/01/15 14:40:20;;;;;;;;;1.00;0.50;;;;;;;;5017414;28;46618;-80
2023/01/15 14:43:04;;;;;;;;;4.00;0.00;;;;;;;;5019250;28;47413;-80
2023/01/15 14:45:29;;;;;;;;;3.25;0.00;;;;;;;;5018745;28;45485;-78
2023/01/15 14:47:55;;;;;;;;;1.00;1.00;;;;;;;;5012513;28;45387;-80
2023/01/15 14:50:21;;;;;;;;;1.33;0.67;;;;;;;;5018465;28;46600;-80
2023/01/15 14:52:48;;;;;;;;;1.50;0.75;;;;;;;;5030195;28;45332;-80
2023/01/15 14:55:14;;;;;;;;;3.00;3.00;;;;;;;;5017011;28;44848;-80
2023/01/15 14:57:41;;;;;;;;;2.00;0.50;;;;;;;;5012734;28;45359;-81
2023/01/15 15:00:09;;;;;;;;;0.50;0.25;;;;;;;;5016110;28;45647;-80
2023/01/15 15:02:37;;;;;;;;;1.00;1.00;;;;;;;;5013998;28;45269;-79
2023/01/15 15:05:07;;;;;;;;;1.50;0.75;;;;;;;;5019207;28;45497;-79
2023/01/15 15:07:39;;;;;;;;;2.00;2.00;;;;;;;;5017134;28;44769;-79
2023/01/15 15:10:10;;;;;;;;;0.00;0.00;;;;;;;;5015868;28;45442;-79
2023/01/15 15:12:35;;;;;;;;;2.25;2.00;;;;;;;;5008765;28;45364;-79
2023/01/15 15:15:00;;;;;;;;;1.75;1.00;;;;;;;;5018004;28;45161;-80
2023/01/15 15:17:31;;;;;;;;;1.00;1.00;;;;;;;;5011089;28;45453;-79
2023/01/15 15:20:00;;;;;;;;;4.00;1.00;;;;;;;;5015725;28;46075;-79
2023/01/15 15:22:28;;;;;;;;;1.75;1.75;;;;;;;;5006618;28;45540;-80
2023/01/15 15:24:54;;;;;;;;;1.50;1.00;;;;;;;;5011784;28;45300;-78
2023/01/15 15:27:21;;;;;;;;;2.00;0.50;;;;;;;;5011925;28;45528;-79
2023/01/15 15:29:46;;;;;;;;;1.50;1.50;;;;;;;;5019598;28;45417;-82
2023/01/15 15:32:14;;;;;;;;;1.75;1.25;;;;;;;;5006658;28;45171;-85
2023/01/15 15:34:45;;;;;;;;;0.75;0.75;;;;;;;;5002746;28;45938;-80
2023/01/15 15:37:17;;;;;;;;;1.00;1.00;;;;;;;;5018635;28;45268;-80
2023/01/15 15:39:57;;;;;;;;;5.50;0.75;;;;;;;;5016953;28;45346;-82
2023/01/15 15:51:05;;;;;;;;;1.00;1.00;;;;;;;;5009643;28;45524;-80
2023/01/15 15:53:30;;;;;;;;;1.00;1.00;;;;;;;;5006291;28;45489;-81
2023/01/15 15:55:57;;;;;;;;;2.75;1.00;;;;;;;;5009550;28;44821;-80
2023/01/15 15:58:25;;;;;;;;;0.50;0.50;;;;;;;;5013994;28;45257;-82
2023/01/15 16:00:52;;;;;;;;;0.00;0.00;;;;;;;;5016767;28;45340;-78
2023/01/15 16:03:22;;;;;;;;;0.00;0.00;;;;;;;;5013788;28;48580;-79
2023/01/15 16:05:56;;;;;;;;;0.00;0.00;;;;;;;;5012639;28;45423;-78